Time;durP1;ratioP1;P1;durP2;ratioP2;P2;SDS_P1;SDS_P2;PMS_P1;PMS_P2;Temp;Humidity;BMP_temperature;BMP_pressure;BME280_temperature;BME280_humidity;BME280_pressure;Samples;Min_cycle;Max_cycle;Signal;HPM_P1;HPM_P2
2022/06/17 00:01:27;;;;;;;3.20;2.90;;;19.90;62.80;;;;;;4970845;28;20460;-60
2022/06/17 00:03:53;;;;;;;4.90;3.30;;;19.90;62.80;;;;;;4966144;28;20200;-61
2022/06/17 00:06:20;;;;;;;3.10;2.90;;;19.90;63.50;;;;;;4973148;28;20550;-61
2022/06/17 00:08:49;;;;;;;3.42;3.08;;;20.40;63.30;;;;;;4974071;28;20258;-61
2022/06/17 00:11:27;;;;;;;3.45;3.15;;;19.80;63.30;;;;;;4972086;28;20199;-61
2022/06/17 00:13:53;;;;;;;3.20;2.90;;;19.90;64.10;;;;;;4972678;28;20192;-60
2022/06/17 00:16:21;;;;;;;3.30;3.00;;;19.80;64.00;;;;;;4970647;28;20192;-61
2022/06/17 00:18:47;;;;;;;3.38;3.08;;;19.60;64.20;;;;;;4967224;28;20172;-62
2022/06/17 00:21:35;;;;;;;3.17;2.97;;;19.60;64.40;;;;;;4971522;28;20200;-61
2022/06/17 00:24:10;;;;;;;3.78;3.47;;;19.60;64.00;;;;;;4978363;28;20190;-61
2022/06/17 00:26:35;;;;;;;3.65;2.55;;;19.50;64.20;;;;;;4971989;28;20661;-61
2022/06/17 00:29:01;;;;;;;3.20;2.90;;;19.50;64.30;;;;;;4969396;28;20222;-61
2022/06/17 00:31:27;;;;;;;3.10;2.90;;;19.60;64.40;;;;;;4971710;28;20245;-61
2022/06/17 00:33:52;;;;;;;3.13;2.83;;;19.60;64.80;;;;;;4972950;28;20223;-61
2022/06/17 00:36:18;;;;;;;3.00;2.80;;;19.60;65.90;;;;;;4971399;28;20188;-61
2022/06/17 00:38:45;;;;;;;3.43;3.13;;;19.50;65.00;;;;;;4970439;28;20176;-60
2022/06/17 00:41:19;;;;;;;3.65;3.17;;;19.40;65.30;;;;;;4969045;28;20455;-61
2022/06/17 00:43:45;;;;;;;4.25;3.13;;;19.30;64.50;;;;;;4973994;28;20183;-61
2022/06/17 00:46:25;;;;;;;3.17;2.83;;;19.40;65.00;;;;;;4972146;28;20970;-61
2022/06/17 00:49:18;;;;;;;3.00;2.80;;;19.30;64.00;;;;;;4969369;28;20243;-61
2022/06/17 00:51:51;;;;;;;3.20;3.00;;;19.40;64.60;;;;;;4967344;28;20204;-62
2022/06/17 00:54:26;;;;;;;3.35;3.03;;;19.30;65.80;;;;;;4973188;28;20216;-61
2022/06/17 00:56:52;;;;;;;5.03;3.38;;;19.40;66.40;;;;;;4967052;28;20198;-61
2022/06/17 00:59:19;;;;;;;4.00;3.70;;;18.80;65.80;;;;;;4968159;28;20176;-61
2022/06/17 01:02:01;;;;;;;2.92;2.72;;;19.30;67.00;;;;;;4974488;28;20204;-60
2022/06/17 01:04:37;;;;;;;3.42;3.13;;;19.10;67.20;;;;;;4970645;28;20200;-61
2022/06/17 01:07:17;;;;;;;3.10;2.90;;;19.00;68.10;;;;;;4972035;28;20243;-61
2022/06/17 01:09:58;;;;;;;3.10;2.90;;;19.00;68.50;;;;;;4969839;28;20274;-60
2022/06/17 01:12:29;;;;;;;2.95;2.70;;;18.90;70.90;;;;;;4970213;28;20506;-61
2022/06/17 01:14:56;;;;;;;3.53;3.22;;;18.70;72.40;;;;;;4971241;28;20222;-61
2022/06/17 01:17:22;;;;;;;3.92;3.58;;;18.70;71.20;;;;;;4958529;28;20552;-61
2022/06/17 01:19:51;;;;;;;3.80;3.07;;;18.70;71.10;;;;;;4969023;28;20214;-61
2022/06/17 01:22:26;;;;;;;4.00;3.60;;;18.60;71.20;;;;;;4974103;28;20478;-61
2022/06/17 01:25:00;;;;;;;3.40;3.10;;;18.60;72.30;;;;;;4970541;28;20195;-61
2022/06/17 01:27:31;;;;;;;3.22;2.72;;;18.50;71.50;;;;;;4966469;28;20188;-61
2022/06/17 01:29:57;;;;;;;3.40;3.10;;;18.50;72.00;;;;;;4975685;28;20208;-61
2022/06/17 01:32:27;;;;;;;4.10;2.67;;;18.40;72.50;;;;;;4968370;28;20189;-61
2022/06/17 01:34:53;;;;;;;4.18;3.40;;;18.40;73.00;;;;;;4973846;28;20223;-60
2022/06/17 01:37:20;;;;;;;3.20;3.00;;;18.30;73.20;;;;;;4973370;28;20177;-61
2022/06/17 01:39:46;;;;;;;3.15;2.85;;;18.30;73.60;;;;;;4970197;28;20534;-61
2022/06/17 01:42:12;;;;;;;3.25;2.88;;;18.30;73.70;;;;;;4968584;28;21877;-62
2022/06/17 01:44:40;;;;;;;3.03;2.70;;;18.10;73.90;;;;;;4974810;28;20215;-61
2022/06/17 01:47:11;;;;;;;3.10;2.80;;;18.20;74.40;;;;;;4975995;28;20444;-61
2022/06/17 01:50:00;;;;;;;3.20;3.00;;;18.00;74.90;;;;;;4973185;28;20207;-61
2022/06/17 01:52:28;;;;;;;3.65;3.10;;;17.80;76.00;;;;;;4974091;28;20721;-61
2022/06/17 01:54:59;;;;;;;2.60;2.42;;;17.80;76.30;;;;;;4970959;28;20224;-61
2022/06/17 01:57:35;;;;;;;3.20;2.90;;;17.80;76.90;;;;;;4973849;28;20180;-61
2022/06/17 02:00:10;;;;;;;2.78;2.58;;;17.70;77.00;;;;;;4978058;28;20204;-61
2022/06/17 02:02:38;;;;;;;2.63;2.45;;;17.90;77.30;;;;;;4973258;28;20205;-61
2022/06/17 02:05:07;;;;;;;2.90;2.70;;;17.80;77.50;;;;;;4973658;28;20282;-61
2022/06/17 02:07:44;;;;;;;2.88;2.65;;;17.70;78.10;;;;;;4973457;28;20812;-61
2022/06/17 02:10:10;;;;;;;3.45;3.25;;;17.60;78.70;;;;;;4970201;28;20677;-61
2022/06/17 02:12:38;;;;;;;5.97;3.03;;;17.70;80.70;;;;;;4970548;28;20192;-60
2022/06/17 02:15:04;;;;;;;3.58;3.22;;;17.60;81.00;;;;;;4974381;28;20878;-61
2022/06/17 02:17:38;;;;;;;2.97;2.75;;;17.60;80.90;;;;;;4963082;28;20271;-62
2022/06/17 02:20:04;;;;;;;3.13;2.85;;;17.80;81.40;;;;;;4971556;28;20287;-61
2022/06/17 02:22:32;;;;;;;4.68;3.00;;;17.50;82.00;;;;;;4974954;28;20185;-61
2022/06/17 02:25:03;;;;;;;3.80;3.00;;;17.70;83.00;;;;;;4974051;28;20592;-60
2022/06/17 02:27:31;;;;;;;2.80;2.60;;;17.40;83.00;;;;;;4973536;28;20191;-60
2022/06/17 02:29:58;;;;;;;2.97;2.78;;;17.30;83.40;;;;;;4971537;28;20216;-60
2022/06/17 02:32:24;;;;;;;2.55;2.42;;;17.20;83.70;;;;;;4963102;28;20271;-60
2022/06/17 02:35:01;;;;;;;3.60;3.20;;;17.00;84.50;;;;;;4974001;28;20295;-60
2022/06/17 02:37:29;;;;;;;3.22;3.00;;;17.00;85.30;;;;;;4967990;28;20441;-61
2022/06/17 02:39:58;;;;;;;3.33;3.00;;;17.00;85.90;;;;;;4974093;28;20260;-60
2022/06/17 02:42:44;;;;;;;3.67;3.40;;;16.90;86.80;;;;;;4962703;28;20195;-60
2022/06/17 02:45:17;;;;;;;3.25;3.05;;;16.80;87.20;;;;;;4973253;28;20542;-61
2022/06/17 02:47:44;;;;;;;6.57;4.80;;;16.50;87.40;;;;;;4968792;28;20181;-61
2022/06/17 02:50:23;;;;;;;3.40;3.20;;;16.90;87.90;;;;;;4973332;28;20212;-60
2022/06/17 02:52:51;;;;;;;3.33;3.03;;;16.60;88.10;;;;;;4972155;28;20266;-60
2022/06/17 02:55:25;;;;;;;3.50;3.20;;;16.80;88.90;;;;;;4971102;28;20230;-61
2022/06/17 02:57:54;;;;;;;3.13;2.90;;;16.70;89.10;;;;;;4966717;28;20252;-60
2022/06/17 03:00:21;;;;;;;4.75;3.10;;;16.90;89.90;;;;;;4972553;28;20474;-60
2022/06/17 03:02:55;;;;;;;4.25;3.08;;;16.80;90.10;;;;;;4970070;28;20188;-60
2022/06/17 03:05:26;;;;;;;5.28;3.30;;;16.80;90.20;;;;;;4973649;28;20282;-61
2022/06/17 03:07:54;;;;;;;3.55;3.25;;;16.50;90.40;;;;;;4973492;28;20223;-60
2022/06/17 03:10:29;;;;;;;3.33;3.13;;;16.80;90.60;;;;;;4975519;28;20208;-61
2022/06/17 03:13:00;;;;;;;3.38;2.88;;;16.50;91.10;;;;;;4972477;28;20188;-60
2022/06/17 03:15:27;;;;;;;4.35;3.75;;;16.40;91.40;;;;;;4972163;28;20311;-60
2022/06/17 03:17:53;;;;;;;3.00;2.80;;;16.50;91.30;;;;;;4965395;28;20180;-61
2022/06/17 03:20:28;;;;;;;3.38;3.05;;;16.70;91.50;;;;;;4971807;28;20203;-61
2022/06/17 03:23:00;;;;;;;2.92;2.72;;;16.60;91.60;;;;;;4974821;28;20187;-60
2022/06/17 03:25:40;;;;;;;3.20;3.00;;;16.60;91.60;;;;;;4968389;28;20199;-60
2022/06/17 03:28:13;;;;;;;3.10;2.80;;;16.40;91.60;;;;;;4971961;28;20184;-61
2022/06/17 03:31:05;;;;;;;3.50;2.90;;;16.30;91.80;;;;;;4974009;28;20210;-60
2022/06/17 03:33:59;;;;;;;3.20;3.00;;;16.50;91.90;;;;;;4962771;28;20199;-61
2022/06/17 03:36:50;;;;;;;3.53;3.17;;;16.50;92.00;;;;;;4969532;28;20231;-60
2022/06/17 03:39:21;;;;;;;3.88;3.58;;;16.40;92.10;;;;;;4967797;28;20188;-60
2022/06/17 03:42:00;;;;;;;3.28;3.08;;;16.30;92.00;;;;;;4966884;28;20185;-61
2022/06/17 03:44:34;;;;;;;3.35;3.15;;;16.30;92.10;;;;;;4973909;28;20204;-61
2022/06/17 03:47:12;;;;;;;4.00;3.60;;;16.30;92.30;;;;;;4969491;28;20918;-61
2022/06/17 03:49:42;;;;;;;3.63;3.30;;;16.30;92.40;;;;;;4963079;28;20218;-60
2022/06/17 03:52:18;;;;;;;3.50;3.30;;;16.10;92.60;;;;;;4971828;28;20195;-61
2022/06/17 03:54:43;;;;;;;3.80;3.50;;;16.30;92.80;;;;;;4971439;28;20208;-62
2022/06/17 03:57:10;;;;;;;4.63;3.27;;;16.30;93.00;;;;;;4965525;28;20737;-69
2022/06/17 03:59:40;;;;;;;3.50;3.20;;;16.60;93.10;;;;;;4966469;28;20283;-67
2022/06/17 04:02:11;;;;;;;3.50;3.20;;;16.10;92.90;;;;;;4964847;28;20184;-63
2022/06/17 04:04:42;;;;;;;3.15;2.95;;;16.20;93.20;;;;;;4968822;28;20208;-61
2022/06/17 04:07:11;;;;;;;3.85;3.55;;;16.20;93.40;;;;;;4962515;28;20239;-61
2022/06/17 04:09:39;;;;;;;3.63;3.33;;;16.30;93.40;;;;;;4970370;28;20216;-66
2022/06/17 04:12:19;;;;;;;4.40;3.92;;;16.60;93.90;;;;;;4967974;28;20184;-62
2022/06/17 04:15:13;;;;;;;4.63;3.50;;;16.50;94.40;;;;;;4967933;28;20623;-67
2022/06/17 04:17:45;;;;;;;3.55;3.28;;;16.50;94.40;;;;;;4963263;28;20185;-68
2022/06/17 04:20:17;;;;;;;4.50;3.60;;;16.30;94.20;;;;;;4967785;28;20207;-65
2022/06/17 04:22:46;;;;;;;5.15;3.20;;;16.30;94.40;;;;;;4962482;28;20240;-64
2022/06/17 04:25:19;;;;;;;3.90;2.95;;;16.20;94.50;;;;;;4968096;28;20192;-64
2022/06/17 04:27:57;;;;;;;4.22;3.83;;;16.20;94.50;;;;;;4970261;28;20184;-67
2022/06/17 04:30:27;;;;;;;3.03;2.80;;;16.30;94.40;;;;;;4963364;28;20212;-67
2022/06/17 04:32:58;;;;;;;3.25;2.95;;;16.20;94.50;;;;;;4965249;28;20201;-68
2022/06/17 04:35:24;;;;;;;5.30;3.45;;;16.10;94.50;;;;;;4966170;28;21030;-68
2022/06/17 04:37:49;;;;;;;3.63;3.20;;;16.40;94.60;;;;;;4965090;28;20191;-66
2022/06/17 04:40:34;;;;;;;4.07;2.97;;;16.40;94.60;;;;;;4969937;28;20291;-66
2022/06/17 04:43:02;;;;;;;3.78;3.47;;;16.50;94.70;;;;;;4970141;28;20654;-62
2022/06/17 04:45:29;;;;;;;5.43;3.42;;;16.60;95.10;;;;;;4964464;28;20245;-64
2022/06/17 04:47:57;;;;;;;3.63;3.33;;;16.50;94.60;;;;;;4968852;28;20196;-64
2022/06/17 04:50:25;;;;;;;5.03;3.63;;;16.60;94.60;;;;;;4971280;28;20212;-65
2022/06/17 04:52:54;;;;;;;5.03;3.67;;;16.60;94.50;;;;;;4959993;28;20671;-67
2022/06/17 04:55:24;;;;;;;6.00;4.18;;;16.80;94.90;;;;;;4969341;28;20204;-68
2022/06/17 04:57:50;;;;;;;5.45;4.60;;;16.90;94.70;;;;;;4963935;28;20188;-67
2022/06/17 05:00:20;;;;;;;3.90;3.60;;;17.00;94.80;;;;;;4962939;28;20458;-68
2022/06/17 05:02:46;;;;;;;3.50;3.20;;;16.80;94.60;;;;;;4959316;28;20440;-61
2022/06/17 05:05:20;;;;;;;4.22;3.88;;;16.90;94.50;;;;;;4967816;28;20305;-60
2022/06/17 05:07:49;;;;;;;5.10;3.83;;;17.10;94.40;;;;;;4966165;28;20188;-60
2022/06/17 05:10:21;;;;;;;4.20;3.83;;;17.20;94.20;;;;;;4969775;28;20207;-60
2022/06/17 05:13:00;;;;;;;3.85;3.55;;;17.30;94.50;;;;;;4964009;28;20191;-60
2022/06/17 05:15:27;;;;;;;4.00;3.70;;;17.30;94.70;;;;;;4958710;28;20215;-65
2022/06/17 05:17:54;;;;;;;3.97;3.60;;;17.50;94.30;;;;;;4963199;28;20280;-64
2022/06/17 05:20:22;;;;;;;8.70;4.20;;;17.80;94.00;;;;;;4963684;28;20208;-68
2022/06/17 05:23:11;;;;;;;4.03;3.58;;;17.60;93.70;;;;;;4964000;28;20183;-63
2022/06/17 05:25:39;;;;;;;4.78;3.53;;;17.80;93.70;;;;;;4971092;28;20211;-64
2022/06/17 05:28:08;;;;;;;3.85;3.50;;;17.90;93.40;;;;;;4960915;28;20281;-63
2022/06/17 05:30:37;;;;;;;3.70;3.35;;;18.00;93.30;;;;;;4969142;28;20208;-64
2022/06/17 05:33:03;;;;;;;4.05;3.75;;;18.50;93.40;;;;;;4964098;28;20188;-63
2022/06/17 05:35:29;;;;;;;4.33;3.60;;;18.20;93.00;;;;;;4966608;28;20574;-67
2022/06/17 05:37:54;;;;;;;3.67;3.37;;;18.30;92.80;;;;;;4965701;28;20452;-68
2022/06/17 05:40:21;;;;;;;4.30;3.83;;;18.40;92.50;;;;;;4966887;28;20242;-69
2022/06/17 05:42:49;;;;;;;4.63;4.22;;;18.50;92.00;;;;;;4969797;28;20184;-70
2022/06/17 05:45:24;;;;;;;5.60;3.80;;;18.60;91.20;;;;;;4962419;28;20193;-71
2022/06/17 05:47:50;;;;;;;3.97;3.60;;;18.70;91.30;;;;;;4967467;28;20185;-63
2022/06/17 05:50:17;;;;;;;3.42;3.17;;;18.70;90.60;;;;;;4969550;28;20212;-61
2022/06/17 05:53:10;;;;;;;3.72;3.42;;;18.90;89.50;;;;;;4965362;28;20266;-60
2022/06/17 05:55:36;;;;;;;3.25;3.00;;;19.10;88.40;;;;;;4969387;28;20220;-61
2022/06/17 05:58:06;;;;;;;5.55;5.00;;;19.50;87.20;;;;;;4965055;28;20189;-62
2022/06/17 06:00:33;;;;;;;6.75;3.83;;;19.40;86.70;;;;;;4967735;28;20212;-62
2022/06/17 06:03:01;;;;;;;4.97;4.47;;;20.00;85.00;;;;;;4960862;28;20554;-61
2022/06/17 06:05:29;;;;;;;4.63;2.95;;;19.90;83.50;;;;;;4962023;28;20302;-61
2022/06/17 06:07:55;;;;;;;3.85;3.55;;;20.00;81.50;;;;;;4962177;28;20734;-62
2022/06/17 06:10:21;;;;;;;6.20;4.37;;;20.20;81.90;;;;;;4962410;28;20295;-62
2022/06/17 06:12:53;;;;;;;3.85;3.55;;;20.40;81.40;;;;;;4964292;28;20646;-62
2022/06/17 06:15:20;;;;;;;3.80;3.50;;;20.50;80.40;;;;;;4970118;28;20216;-62
2022/06/17 06:17:47;;;;;;;4.13;3.72;;;20.60;78.50;;;;;;4962760;28;20324;-62
2022/06/17 06:20:13;;;;;;;4.13;3.58;;;20.60;78.60;;;;;;4966972;28;20227;-63
2022/06/17 06:22:39;;;;;;;3.30;3.00;;;20.60;77.80;;;;;;4968400;28;20181;-67
2022/06/17 06:25:06;;;;;;;3.30;3.00;;;20.70;77.30;;;;;;4964810;28;20189;-68
2022/06/17 06:27:31;;;;;;;3.65;3.35;;;20.70;76.70;;;;;;4970011;28;20188;-61
2022/06/17 06:29:57;;;;;;;6.17;2.80;;;20.70;77.00;;;;;;4971136;28;20735;-61
2022/06/17 06:32:23;;;;;;;3.97;3.37;;;20.80;76.60;;;;;;4967983;28;20655;-66
2022/06/17 06:34:50;;;;;;;3.23;3.03;;;20.90;76.80;;;;;;4970649;28;20208;-67
2022/06/17 06:37:16;;;;;;;4.13;3.72;;;21.10;76.20;;;;;;4971410;28;20236;-66
2022/06/17 06:39:41;;;;;;;3.90;3.60;;;21.30;75.80;;;;;;4969647;28;20328;-68
2022/06/17 06:42:07;;;;;;;6.43;3.00;;;21.40;75.00;;;;;;4969084;28;20188;-66
2022/06/17 06:44:33;;;;;;;3.43;3.23;;;21.50;75.20;;;;;;4971366;28;20642;-66
2022/06/17 06:46:58;;;;;;;3.67;3.30;;;21.70;74.50;;;;;;4958197;28;20192;-66
2022/06/17 06:49:24;;;;;;;5.40;3.27;;;21.70;74.10;;;;;;4968409;28;20229;-65
2022/06/17 06:51:50;;;;;;;5.53;3.70;;;21.60;74.20;;;;;;4969435;28;20967;-66
2022/06/17 06:54:15;;;;;;;3.93;3.10;;;21.50;73.70;;;;;;4969706;28;20588;-66
2022/06/17 06:56:41;;;;;;;3.90;3.13;;;21.50;73.40;;;;;;4971062;28;20199;-66
2022/06/17 06:59:07;;;;;;;3.33;3.13;;;21.70;73.20;;;;;;4971119;28;20196;-66
2022/06/17 07:01:32;;;;;;;4.00;3.60;;;22.00;72.50;;;;;;4967224;28;20267;-66
2022/06/17 07:03:58;;;;;;;3.40;3.20;;;22.00;71.60;;;;;;4962856;28;20204;-64
2022/06/17 07:06:25;;;;;;;7.63;3.43;;;22.50;71.40;;;;;;4972704;28;20259;-62
2022/06/17 07:08:51;;;;;;;3.93;3.60;;;23.90;68.70;;;;;;4969665;28;20448;-65
2022/06/17 07:11:17;;;;;;;3.53;3.23;;;25.10;65.60;;;;;;4972190;28;20206;-66
2022/06/17 07:13:43;;;;;;;3.90;3.50;;;26.50;60.00;;;;;;4970453;28;20574;-63
2022/06/17 07:16:11;;;;;;;4.60;3.40;;;27.90;55.80;;;;;;4965420;28;20487;-60
2022/06/17 07:18:38;;;;;;;4.00;3.60;;;29.70;52.70;;;;;;4966981;28;20856;-62
2022/06/17 07:21:06;;;;;;;4.37;3.60;;;32.20;48.60;;;;;;4970189;28;20526;-63
2022/06/17 07:23:38;;;;;;;5.37;3.53;;;34.10;44.20;;;;;;4965729;28;20471;-63
2022/06/17 07:26:18;;;;;;;3.47;3.20;;;35.20;40.30;;;;;;4961999;28;20828;-63
2022/06/17 07:28:45;;;;;;;3.50;3.03;;;34.60;40.10;;;;;;4961137;28;20452;-65
2022/06/17 07:31:11;;;;;;;3.60;3.30;;;35.10;38.30;;;;;;4970609;28;20475;-69
2022/06/17 07:33:37;;;;;;;3.90;3.30;;;35.40;38.30;;;;;;4965772;28;20871;-70
2022/06/17 07:36:05;;;;;;;3.67;3.37;;;35.60;36.60;;;;;;4969485;28;20475;-70
2022/06/17 07:41:23;;;;;;;5.00;3.60;;;36.70;36.10;;;;;;4965533;28;20475;-67
2022/06/17 07:43:49;;;;;;;4.13;3.40;;;38.30;34.40;;;;;;4965905;28;20570;-68
2022/06/17 07:46:15;;;;;;;5.00;3.20;;;39.20;32.30;;;;;;4971746;28;20849;-68
2022/06/17 07:48:41;;;;;;;3.33;3.03;;;38.80;32.50;;;;;;4968771;28;20200;-68
2022/06/17 07:51:08;;;;;;;3.30;3.10;;;39.90;31.40;;;;;;4969813;28;20236;-69
2022/06/17 07:53:35;;;;;;;3.57;3.37;;;40.90;30.50;;;;;;4969013;28;20200;-68
2022/06/17 07:56:03;;;;;;;3.53;3.23;;;40.40;29.90;;;;;;4964512;28;20484;-69
2022/06/17 07:58:29;;;;;;;3.67;3.30;;;40.30;29.80;;;;;;4964625;28;20514;-65
2022/06/17 08:00:58;;;;;;;3.30;3.10;;;41.40;29.10;;;;;;4962499;28;20479;-64
2022/06/17 08:03:23;;;;;;;6.90;6.20;;;41.50;29.10;;;;;;4965378;28;20466;-65
2022/06/17 08:05:52;;;;;;;3.80;3.50;;;41.70;29.00;;;;;;4964626;28;20447;-66
2022/06/17 08:08:22;;;;;;;3.57;3.37;;;41.40;29.00;;;;;;4967438;28;20444;-67
2022/06/17 08:10:53;;;;;;;3.80;3.60;;;41.70;28.70;;;;;;4968963;28;20467;-66
2022/06/17 08:13:20;;;;;;;4.43;3.80;;;40.20;29.10;;;;;;4966246;28;20450;-65
2022/06/17 08:15:46;;;;;;;4.13;3.73;;;38.50;30.50;;;;;;4964425;28;20834;-66
2022/06/17 08:18:12;;;;;;;4.37;3.97;;;38.20;31.40;;;;;;4961734;28;20452;-66
2022/06/17 08:20:38;;;;;;;4.57;4.17;;;37.20;31.10;;;;;;4958359;28;20467;-65
2022/06/17 08:23:05;;;;;;;5.00;3.77;;;35.10;33.70;;;;;;4970867;28;20428;-65
2022/06/17 08:25:32;;;;;;;7.53;6.90;;;35.50;34.80;;;;;;4967947;28;20696;-66
2022/06/17 08:28:02;;;;;;;4.20;3.87;;;35.70;33.20;;;;;;4966351;28;20443;-66
2022/06/17 08:30:35;;;;;;;4.40;3.70;;;35.30;34.10;;;;;;4964582;28;20475;-63
2022/06/17 08:33:01;;;;;;;4.33;4.00;;;36.30;33.10;;;;;;4960786;28;20501;-63
2022/06/17 08:35:33;;;;;;;4.20;3.80;;;37.60;31.90;;;;;;4963832;28;20463;-70
2022/06/17 08:38:05;;;;;;;3.30;3.10;;;38.00;31.20;;;;;;4966152;28;20192;-70
2022/06/17 08:40:35;;;;;;;3.10;2.90;;;38.80;30.00;;;;;;4965176;28;20482;-69
2022/06/17 08:43:14;;;;;;;3.20;2.97;;;38.20;29.10;;;;;;4961873;28;20528;-71
2022/06/17 08:45:46;;;;;;;4.30;3.80;;;38.70;29.10;;;;;;4966088;28;20447;-71
2022/06/17 08:48:34;;;;;;;3.27;2.97;;;38.90;29.10;;;;;;4961857;28;20443;-70
2022/06/17 08:51:47;;;;;;;3.93;3.63;;;38.70;28.70;;;;;;4970393;28;20554;-71
2022/06/17 08:54:33;;;;;;;2.70;2.60;;;36.40;28.40;;;;;;4988149;28;20447;-69
2022/06/17 08:57:18;;;;;;;8.30;2.90;;;37.60;28.90;;;;;;4964433;28;20451;-71
2022/06/17 09:00:05;;;;;;;3.43;3.10;;;38.50;28.50;;;;;;4968098;28;20471;-69
2022/06/17 09:03:05;;;;;;;5.50;3.33;;;39.50;28.20;;;;;;4963082;28;20456;-72
2022/06/17 09:05:31;;;;;;;4.40;2.93;;;38.30;27.40;;;;;;4963926;28;20455;-69
2022/06/17 09:08:07;;;;;;;4.10;3.80;;;38.20;29.00;;;;;;4963432;28;20788;-69
2022/06/17 09:10:41;;;;;;;2.90;2.70;;;37.60;28.50;;;;;;4965323;28;20231;-69
2022/06/17 09:13:51;;;;;;;3.43;3.23;;;37.60;29.40;;;;;;4959665;28;20451;-67
2022/06/17 09:16:41;;;;;;;3.80;3.47;;;38.60;28.50;;;;;;4966044;28;20551;-68
2022/06/17 09:19:10;;;;;;;3.77;3.43;;;36.50;29.10;;;;;;4968798;28;20473;-68
2022/06/17 09:21:52;;;;;;;3.60;3.27;;;37.10;29.00;;;;;;4964011;28;20488;-69
2022/06/17 09:24:37;;;;;;;3.63;3.23;;;38.10;29.00;;;;;;4962570;28;20447;-68
2022/06/17 09:27:07;;;;;;;3.60;3.00;;;38.00;28.30;;;;;;4963252;28;20458;-67
2022/06/17 09:30:11;;;;;;;3.20;2.90;;;38.10;28.70;;;;;;4964067;28;20471;-70
2022/06/17 09:32:46;;;;;;;3.23;3.03;;;37.50;28.60;;;;;;4963763;28;20448;-69
2022/06/17 09:35:12;;;;;;;3.63;3.20;;;38.20;28.50;;;;;;4966148;28;20587;-68
2022/06/17 09:37:54;;;;;;;5.27;4.37;;;38.50;28.30;;;;;;4969385;28;20862;-68
2022/06/17 09:40:45;;;;;;;3.40;3.20;;;39.00;27.80;;;;;;4966843;28;20208;-68
2022/06/17 09:43:31;;;;;;;3.43;2.93;;;39.30;27.60;;;;;;4963661;28;20460;-72
2022/06/17 09:46:04;;;;;;;5.77;3.90;;;39.50;27.30;;;;;;4963092;28;20550;-71
2022/06/17 09:48:41;;;;;;;3.70;3.40;;;39.20;27.00;;;;;;4965316;28;20455;-69
2022/06/17 09:51:19;;;;;;;3.90;2.90;;;38.80;27.30;;;;;;4968942;28;20578;-72
2022/06/17 09:53:54;;;;;;;3.50;3.23;;;38.80;27.10;;;;;;4969124;28;20487;-68
2022/06/17 09:56:41;;;;;;;4.47;3.37;;;37.10;27.80;;;;;;4969201;28;20558;-69
2022/06/17 09:59:27;;;;;;;3.40;3.10;;;37.20;28.00;;;;;;4966020;28;20944;-70
2022/06/17 10:02:05;;;;;;;3.23;3.00;;;37.80;28.20;;;;;;4967628;28;20964;-70
2022/06/17 10:04:31;;;;;;;3.90;3.00;;;38.50;27.70;;;;;;4968840;28;20961;-71
2022/06/17 10:07:11;;;;;;;3.17;2.87;;;38.20;27.80;;;;;;4969292;28;20450;-70
2022/06/17 10:09:49;;;;;;;4.33;3.93;;;37.60;27.90;;;;;;4965839;28;20212;-68
2022/06/17 10:12:29;;;;;;;4.37;3.87;;;38.10;28.20;;;;;;4968822;28;20491;-71
2022/06/17 10:15:01;;;;;;;3.50;3.20;;;38.60;27.90;;;;;;4968797;28;20528;-71
2022/06/17 10:20:59;;;;;;;5.10;3.40;;;39.20;26.50;;;;;;4972133;28;20946;-70
2022/06/17 10:23:32;;;;;;;3.10;2.80;;;38.90;26.80;;;;;;4972335;28;20427;-71
2022/06/17 10:26:03;;;;;;;3.10;2.80;;;39.70;26.50;;;;;;4967440;28;20443;-71
2022/06/17 10:28:56;;;;;;;3.40;2.97;;;39.70;26.20;;;;;;4966428;28;20443;-65
2022/06/17 10:31:30;;;;;;;3.40;2.77;;;39.00;25.60;;;;;;4971345;28;20471;-68
2022/06/17 10:33:58;;;;;;;3.33;3.13;;;37.80;26.60;;;;;;4969327;28;20450;-72
2022/06/17 10:36:23;;;;;;;3.20;3.00;;;38.70;27.00;;;;;;4969924;28;20481;-66
2022/06/17 10:38:49;;;;;;;3.77;3.47;;;39.70;26.50;;;;;;4963651;28;20444;-64
2022/06/17 10:41:17;;;;;;;3.50;3.20;;;40.10;26.00;;;;;;4970594;28;20315;-65
2022/06/17 10:43:49;;;;;;;3.20;2.90;;;39.00;25.70;;;;;;4972397;28;20223;-65
2022/06/17 10:46:29;;;;;;;3.00;2.70;;;38.60;25.60;;;;;;4971780;28;20765;-63
2022/06/17 10:49:16;;;;;;;3.50;3.00;;;38.90;26.00;;;;;;4966018;28;20534;-63
2022/06/17 10:51:44;;;;;;;3.00;2.70;;;39.70;25.80;;;;;;4970240;28;20447;-63
2022/06/17 10:54:32;;;;;;;3.60;2.90;;;38.70;26.00;;;;;;4971832;28;20443;-65
2022/06/17 10:57:22;;;;;;;3.10;2.80;;;38.20;26.40;;;;;;4960177;28;20475;-63
2022/06/17 10:59:48;;;;;;;3.30;3.00;;;37.90;26.60;;;;;;4963467;28;20547;-64
2022/06/17 11:02:31;;;;;;;3.47;2.70;;;38.00;26.80;;;;;;4969270;28;20522;-64
2022/06/17 11:05:06;;;;;;;3.00;2.80;;;38.30;26.90;;;;;;4971810;28;20724;-64
2022/06/17 11:07:50;;;;;;;2.80;2.63;;;37.60;27.00;;;;;;4973014;28;20940;-63
2022/06/17 11:10:16;;;;;;;2.73;2.63;;;37.50;27.10;;;;;;4961727;28;20475;-63
2022/06/17 11:13:04;;;;;;;2.67;2.47;;;36.00;27.40;;;;;;4971984;28;20459;-63
2022/06/17 11:15:44;;;;;;;4.03;2.80;;;35.40;27.40;;;;;;4969228;28;20229;-64
2022/06/17 11:18:17;;;;;;;3.00;2.67;;;35.60;27.40;;;;;;4969205;28;20447;-64
2022/06/17 11:21:00;;;;;;;3.03;2.83;;;36.60;27.10;;;;;;4971465;28;20467;-64
2022/06/17 11:23:28;;;;;;;3.20;2.87;;;36.30;27.40;;;;;;4971652;28;20461;-64
2022/06/17 11:26:17;;;;;;;3.67;3.00;;;36.20;28.00;;;;;;4969331;28;20887;-64
2022/06/17 11:28:49;;;;;;;3.17;2.87;;;37.00;27.40;;;;;;4971380;28;20447;-64
2022/06/17 11:31:39;;;;;;;2.50;2.30;;;37.60;26.40;;;;;;4971620;28;20462;-64
2022/06/17 11:34:15;;;;;;;3.83;2.83;;;38.30;26.00;;;;;;4970491;28;20443;-64
2022/06/17 11:37:16;;;;;;;3.40;3.10;;;37.80;25.90;;;;;;4971692;28;20447;-64
2022/06/17 11:39:41;;;;;;;2.70;2.50;;;38.00;26.30;;;;;;4968983;28;20999;-64
2022/06/17 11:42:20;;;;;;;5.20;4.60;;;35.80;27.10;;;;;;4968882;28;20466;-64
2022/06/17 11:44:56;;;;;;;2.87;2.67;;;35.30;27.70;;;;;;4966646;28;20188;-64
2022/06/17 11:47:24;;;;;;;4.63;2.77;;;34.90;27.40;;;;;;4970386;28;20929;-64
2022/06/17 11:49:53;;;;;;;2.97;2.77;;;35.00;28.00;;;;;;4969919;28;20462;-64
2022/06/17 11:52:30;;;;;;;4.30;3.30;;;34.60;28.50;;;;;;4970541;28;20446;-64
2022/06/17 11:54:56;;;;;;;2.60;2.40;;;33.70;28.80;;;;;;4969908;28;20586;-64
2022/06/17 11:57:31;;;;;;;2.40;2.30;;;33.30;28.80;;;;;;4966522;28;20450;-64
2022/06/17 12:00:00;;;;;;;3.27;2.50;;;32.90;29.40;;;;;;4968739;28;20459;-64
2022/06/17 12:02:27;;;;;;;2.60;2.40;;;32.20;29.80;;;;;;4970138;28;20454;-64
2022/06/17 12:05:19;;;;;;;2.27;2.17;;;31.50;30.00;;;;;;4971407;28;20479;-64
2022/06/17 12:07:52;;;;;;;2.67;2.47;;;31.00;30.00;;;;;;4974477;28;20497;-64
2022/06/17 12:10:32;;;;;;;2.53;2.33;;;30.70;30.80;;;;;;4968803;28;20467;-64
2022/06/17 12:13:34;;;;;;;2.80;2.60;;;30.50;31.70;;;;;;4969754;28;20443;-64
2022/06/17 12:16:13;;;;;;;3.40;2.20;;;30.50;32.60;;;;;;4977959;28;20560;-64
2022/06/17 12:18:53;;;;;;;4.57;2.70;;;30.60;32.10;;;;;;4964822;28;20451;-64
2022/06/17 12:21:32;;;;;;;5.30;2.50;;;30.50;31.90;;;;;;4971155;28;20467;-64
2022/06/17 12:24:06;;;;;;;2.43;2.23;;;30.50;31.60;;;;;;4970466;28;20439;-64
2022/06/17 12:27:01;;;;;;;2.70;2.30;;;30.60;31.20;;;;;;4966311;28;20449;-64
2022/06/17 12:29:35;;;;;;;2.93;2.40;;;30.40;30.60;;;;;;4972162;28;20447;-64
2022/06/17 12:32:15;;;;;;;3.93;2.20;;;30.40;31.70;;;;;;4968094;28;20447;-64
2022/06/17 12:34:57;;;;;;;2.13;2.03;;;30.20;31.80;;;;;;4968747;28;20467;-64
2022/06/17 12:37:41;;;;;;;2.07;1.87;;;30.30;31.60;;;;;;4967032;28;20439;-63
2022/06/17 12:40:30;;;;;;;2.83;2.30;;;30.10;31.10;;;;;;4973246;28;20466;-64
2022/06/17 12:43:04;;;;;;;4.33;2.40;;;30.00;31.90;;;;;;4964097;28;20578;-64
2022/06/17 12:45:53;;;;;;;4.03;3.73;;;29.60;31.70;;;;;;4965242;28;20489;-69
2022/06/17 12:48:25;;;;;;;2.57;2.37;;;29.60;32.40;;;;;;4958651;28;20452;-67
2022/06/17 12:54:01;;;;;;;2.93;2.60;;;29.80;32.20;;;;;;4966672;28;20589;-67
2022/06/17 12:56:58;;;;;;;2.70;2.50;;;29.80;31.50;;;;;;4965710;28;20587;-67
2022/06/17 12:59:45;;;;;;;3.03;2.03;;;30.00;32.60;;;;;;4962409;28;20493;-68
2022/06/17 13:02:17;;;;;;;2.20;2.00;;;30.10;32.90;;;;;;4964677;28;20450;-69
2022/06/17 13:05:07;;;;;;;1.97;1.80;;;30.30;32.60;;;;;;4967117;28;20569;-69
2022/06/17 13:08:10;;;;;;;2.13;1.80;;;30.30;31.70;;;;;;4961844;28;20483;-69
2022/06/17 13:11:03;;;;;;;2.20;2.00;;;30.20;31.20;;;;;;4967497;28;20576;-72
2022/06/17 13:13:58;;;;;;;2.70;2.50;;;30.30;31.60;;;;;;4960141;28;20439;-68
2022/06/17 13:16:40;;;;;;;2.50;2.30;;;30.20;31.50;;;;;;4966991;28;20994;-72
2022/06/17 13:19:14;;;;;;;1.87;1.60;;;29.90;31.40;;;;;;4964868;28;20956;-75
2022/06/17 13:21:49;;;;;;;1.67;1.57;;;29.80;31.50;;;;;;4963947;28;20965;-75
2022/06/17 13:24:28;;;;;;;3.10;2.90;;;29.60;31.30;;;;;;4968380;28;20454;-74
2022/06/17 13:27:24;;;;;;;2.43;2.23;;;29.50;31.60;;;;;;4966687;28;20532;-73
2022/06/17 13:29:57;;;;;;;2.23;2.03;;;29.50;32.10;;;;;;4968939;28;20472;-72